Time,TemperatureF,DewpointF,PressureIn,WindDirection,WindDirectionDegrees,WindSpeedMPH,WindSpeedGustMPH,Humidity,HourlyPrecipIn,Conditions,Clouds,dailyrainin,SoftwareType,DateUTC
2013-05-13 00:01:00,52.7,42.1,29.82,NNW,331,0.0,1.0,67,0.00,,,0.00,LWC V2.10 B1702,2013-05-13 04:01:00,
2013-05-13 00:06:00,52.4,42.5,29.82,NNW,331,0.0,1.0,69,0.00,,,0.00,LWC V2.10 B1702,2013-05-13 04:06:00,
2013-05-13 00:11:00,52.1,42.6,29.82,NNW,336,3.0,3.0,70,0.00,,,0.00,LWC V2.10 B1702,2013-05-13 04:11:00,
2013-05-13 00:16:00,52.0,41.8,29.82,NNW,332,0.0,4.0,68,0.00,,,0.00,LWC V2.10 B1702,2013-05-13 04:16:00,
2013-05-13 00:21:00,52.3,42.1,29.83,NNW,342,3.0,4.0,68,0.00,,,0.00,LWC V2.10 B1702,2013-05-13 04:21:00,
2013-05-13 00:26:00,52.4,42.2,29.83,NNW,340,2.0,6.0,68,0.00,,,0.00,LWC V2.10 B1702,2013-05-13 04:26:00,
2013-05-13 00:31:00,52.4,41.8,29.83,NNW,334,2.0,5.0,67,0.00,,,0.00,LWC V2.10 B1702,2013-05-13 04:31:00,
2013-05-13 00:36:00,52.6,41.6,29.83,WNW,288,1.0,2.0,66,0.00,,,0.00,LWC V2.10 B1702,2013-05-13 04:36:00,
2013-05-13 00:41:00,52.7,41.3,29.84,NNW,335,3.0,6.0,65,0.00,,,0.00,LWC V2.10 B1702,2013-05-13 04:41:00,
2013-05-13 00:46:00,52.6,41.2,29.84,NNW,335,4.0,5.0,65,0.00,,,0.00,LWC V2.10 B1702,2013-05-13 04:46:00,
2013-05-13 00:51:00,52.6,41.6,29.84,NNW,337,2.0,3.0,66,0.00,,,0.00,LWC V2.10 B1702,2013-05-13 04:51:00,
2013-05-13 00:56:00,52.5,41.5,29.84,NW,321,0.0,1.0,66,0.00,,,0.00,LWC V2.10 B1702,2013-05-13 04:56:00,
2013-05-13 01:01:00,52.2,42.0,29.84,NW,313,1.0,2.0,68,0.00,,,0.00,LWC V2.10 B1702,2013-05-13 05:01:00,
2013-05-13 01:06:00,52.0,40.6,29.84,NNW,336,2.0,3.0,65,0.00,,,0.00,LWC V2.10 B1702,2013-05-13 05:06:00,
2013-05-13 01:11:00,52.1,40.3,29.85,North,355,5.0,7.0,64,0.00,,,0.00,LWC V2.10 B1702,2013-05-13 05:11:00,
2013-05-13 01:16:00,52.0,39.4,29.85,WNW,303,2.0,4.0,62,0.00,,,0.00,LWC V2.10 B1702,2013-05-13 05:16:00,
2013-05-13 01:21:00,52.1,39.5,29.85,NNW,338,6.0,6.0,62,0.00,,,0.00,LWC V2.10 B1702,2013-05-13 05:21:00,
2013-05-13 01:26:00,52.0,39.4,29.85,NNW,348,0.0,3.0,62,0.00,,,0.00,LWC V2.10 B1702,2013-05-13 05:26:00,
2013-05-13 01:31:00,51.8,38.8,29.85,WNW,298,1.0,3.0,61,0.00,,,0.00,LWC V2.10 B1702,2013-05-13 05:31:00,
2013-05-13 01:36:00,51.6,39.0,29.86,NW,315,0.0,2.0,62,0.00,,,0.00,LWC V2.10 B1702,2013-05-13 05:36:00,
2013-05-13 01:41:00,51.5,38.9,29.86,NW,322,4.0,6.0,62,0.00,,,0.00,LWC V2.10 B1702,2013-05-13 05:41:00,
2013-05-13 01:46:00,51.4,38.4,29.86,NW,320,1.0,3.0,61,0.00,,,0.00,LWC V2.10 B1702,2013-05-13 05:46:00,
2013-05-13 01:51:00,51.2,37.4,29.86,WNW,300,2.0,3.0,59,0.00,,,0.00,LWC V2.10 B1702,2013-05-13 05:51:00,
2013-05-13 01:56:00,51.3,37.0,29.86,NW,317,0.0,3.0,58,0.00,,,0.00,LWC V2.10 B1702,2013-05-13 05:56:00,
2013-05-13 02:01:00,51.3,37.0,29.86,NNW,342,2.0,2.0,58,0.00,,,0.00,LWC V2.10 B1702,2013-05-13 06:01:00,
2013-05-13 02:06:00,51.3,37.0,29.86,NW,324,1.0,3.0,58,0.00,,,0.00,LWC V2.10 B1702,2013-05-13 06:06:00,
2013-05-13 02:11:00,51.2,37.4,29.87,WNW,298,4.0,4.0,59,0.00,,,0.00,LWC V2.10 B1702,2013-05-13 06:11:00,
2013-05-13 02:16:00,51.1,36.0,29.87,NW,308,3.0,3.0,56,0.00,,,0.00,LWC V2.10 B1702,2013-05-13 06:16:00,
2013-05-13 02:21:00,51.0,36.3,29.87,West,279,3.0,5.0,57,0.00,,,0.00,LWC V2.10 B1702,2013-05-13 06:21:00,
2013-05-13 02:26:00,51.1,36.4,29.87,NNW,327,1.0,3.0,57,0.00,,,0.00,LWC V2.10 B1702,2013-05-13 06:26:00,
2013-05-13 02:31:00,51.0,35.9,29.87,NW,315,3.0,4.0,56,0.00,,,0.00,LWC V2.10 B1702,2013-05-13 06:31:00,
2013-05-13 02:36:00,51.1,36.4,29.87,NW,323,2.0,5.0,57,0.00,,,0.00,LWC V2.10 B1702,2013-05-13 06:36:00,
2013-05-13 02:41:00,51.1,36.0,29.88,North,5,2.0,4.0,56,0.00,,,0.00,LWC V2.10 B1702,2013-05-13 06:41:00,
2013-05-13 02:46:00,51.0,36.7,29.88,WNW,292,4.0,4.0,58,0.00,,,0.00,LWC V2.10 B1702,2013-05-13 06:46:00,
2013-05-13 02:51:00,51.0,36.3,29.88,WNW,290,1.0,4.0,57,0.00,,,0.00,LWC V2.10 B1702,2013-05-13 06:51:00,
2013-05-13 02:56:00,51.1,36.0,29.88,NNW,329,3.0,3.0,56,0.00,,,0.00,LWC V2.10 B1702,2013-05-13 06:56:00,
2013-05-13 03:01:00,51.0,36.3,29.88,WNW,291,0.0,3.0,57,0.00,,,0.00,LWC V2.10 B1702,2013-05-13 07:01:00,
2013-05-13 03:06:00,50.7,36.9,29.88,WNW,296,0.0,2.0,59,0.00,,,0.00,LWC V2.10 B1702,2013-05-13 07:06:00,
2013-05-13 03:11:00,50.6,36.4,29.88,WNW,284,3.0,3.0,58,0.00,,,0.00,LWC V2.10 B1702,2013-05-13 07:11:00,
2013-05-13 03:16:00,50.6,35.5,29.88,NW,308,1.0,4.0,56,0.00,,,0.00,LWC V2.10 B1702,2013-05-13 07:16:00,
2013-05-13 03:21:00,50.7,35.6,29.88,NW,324,3.0,3.0,56,0.00,,,0.00,LWC V2.10 B1702,2013-05-13 07:21:00,
2013-05-13 03:26:00,50.8,35.7,29.88,NNW,331,2.0,3.0,56,0.00,,,0.00,LWC V2.10 B1702,2013-05-13 07:26:00,
2013-05-13 03:31:00,50.7,36.9,29.88,NW,304,0.0,2.0,59,0.00,,,0.00,LWC V2.10 B1702,2013-05-13 07:31:00,
2013-05-13 03:36:00,50.5,36.7,29.88,West,266,3.0,5.0,59,0.00,,,0.00,LWC V2.10 B1702,2013-05-13 07:36:00,
2013-05-13 03:41:00,50.4,35.7,29.88,NW,323,0.0,3.0,57,0.00,,,0.00,LWC V2.10 B1702,2013-05-13 07:41:00,
2013-05-13 03:46:00,50.3,36.5,29.89,NW,315,0.0,4.0,59,0.00,,,0.00,LWC V2.10 B1702,2013-05-13 07:46:00,
2013-05-13 03:51:00,50.3,36.1,29.89,NNW,338,2.0,2.0,58,0.00,,,0.00,LWC V2.10 B1702,2013-05-13 07:51:00,
2013-05-13 03:56:00,50.3,35.2,29.89,WNW,292,2.0,3.0,56,0.00,,,0.00,LWC V2.10 B1702,2013-05-13 07:56:00,
2013-05-13 04:01:00,50.3,35.2,29.89,NW,324,1.0,4.0,56,0.00,,,0.00,LWC V2.10 B1702,2013-05-13 08:01:00,
2013-05-13 04:06:00,50.2,35.6,29.89,WNW,289,0.0,1.0,57,0.00,,,0.00,LWC V2.10 B1702,2013-05-13 08:06:00,
2013-05-13 04:11:00,50.0,36.2,29.89,WNW,292,0.0,1.0,59,0.00,,,0.00,LWC V2.10 B1702,2013-05-13 08:11:00,
2013-05-13 04:16:00,49.8,36.5,29.89,WNW,300,2.0,2.0,60,0.00,,,0.00,LWC V2.10 B1702,2013-05-13 08:16:00,
2013-05-13 04:21:00,49.7,36.4,29.90,WSW,250,2.0,4.0,60,0.00,,,0.00,LWC V2.10 B1702,2013-05-13 08:21:00,
2013-05-13 04:26:00,49.9,35.7,29.90,NW,311,1.0,5.0,58,0.00,,,0.00,LWC V2.10 B1702,2013-05-13 08:26:00,
2013-05-13 04:31:00,50.0,35.4,29.90,NW,321,2.0,6.0,57,0.00,,,0.00,LWC V2.10 B1702,2013-05-13 08:31:00,
2013-05-13 04:36:00,50.0,35.4,29.90,NW,320,3.0,4.0,57,0.00,,,0.00,LWC V2.10 B1702,2013-05-13 08:36:00,
2013-05-13 04:41:00,49.9,35.7,29.90,WNW,299,3.0,3.0,58,0.00,,,0.00,LWC V2.10 B1702,2013-05-13 08:41:00,
2013-05-13 04:46:00,49.7,36.8,29.90,NW,309,0.0,1.0,61,0.00,,,0.00,LWC V2.10 B1702,2013-05-13 08:46:00,
2013-05-13 04:51:00,49.5,36.2,29.90,NW,314,2.0,4.0,60,0.00,,,0.00,LWC V2.10 B1702,2013-05-13 08:51:00,
2013-05-13 04:56:00,49.6,35.9,29.91,WNW,298,2.0,7.0,59,0.00,,,0.00,LWC V2.10 B1702,2013-05-13 08:56:00,
2013-05-13 05:01:00,49.6,35.9,29.91,WNW,301,2.0,2.0,59,0.00,,,0.00,LWC V2.10 B1702,2013-05-13 09:01:00,
2013-05-13 05:06:00,49.6,36.7,29.91,WNW,298,1.0,2.0,61,0.00,,,0.00,LWC V2.10 B1702,2013-05-13 09:06:00,
2013-05-13 05:11:00,49.4,36.5,29.91,NNW,337,1.0,4.0,61,0.00,,,0.00,LWC V2.10 B1702,2013-05-13 09:11:00,
2013-05-13 05:16:00,49.2,36.3,29.92,NNW,327,1.0,2.0,61,0.00,,,0.00,LWC V2.10 B1702,2013-05-13 09:16:00,
2013-05-13 05:21:00,49.0,36.1,29.92,NW,313,0.0,3.0,61,0.00,,,0.00,LWC V2.10 B1702,2013-05-13 09:21:00,
2013-05-13 05:26:00,48.8,36.8,29.92,NW,313,0.0,1.0,63,0.00,,,0.00,LWC V2.10 B1702,2013-05-13 09:26:00,
2013-05-13 05:31:00,48.6,36.6,29.92,West,269,0.0,3.0,63,0.00,,,0.00,LWC V2.10 B1702,2013-05-13 09:31:00,
2013-05-13 05:36:00,48.6,36.2,29.92,WSW,247,0.0,5.0,62,0.00,,,0.00,LWC V2.10 B1702,2013-05-13 09:36:00,
2013-05-13 05:41:00,48.6,36.6,29.92,NW,314,1.0,2.0,63,0.00,,,0.00,LWC V2.10 B1702,2013-05-13 09:41:00,
2013-05-13 05:46:00,48.5,36.5,29.92,West,278,1.0,3.0,63,0.00,,,0.00,LWC V2.10 B1702,2013-05-13 09:46:00,
2013-05-13 05:51:00,48.6,36.2,29.92,NW,304,2.0,2.0,62,0.00,,,0.00,LWC V2.10 B1702,2013-05-13 09:51:00,
2013-05-13 05:56:00,48.7,36.7,29.93,NW,313,0.0,2.0,63,0.00,,,0.00,LWC V2.10 B1702,2013-05-13 09:56:00,
2013-05-13 06:01:00,48.8,37.2,29.93,NW,321,0.0,3.0,64,0.00,,,0.00,LWC V2.10 B1702,2013-05-13 10:01:00,
2013-05-13 06:06:00,48.8,37.2,29.93,WNW,290,1.0,2.0,64,0.00,,,0.00,LWC V2.10 B1702,2013-05-13 10:06:00,
2013-05-13 06:11:00,49.0,37.0,29.93,NW,304,4.0,6.0,63,0.00,,,0.00,LWC V2.10 B1702,2013-05-13 10:11:00,
2013-05-13 06:16:00,49.2,37.1,29.94,West,271,2.0,7.0,63,0.00,,,0.00,LWC V2.10 B1702,2013-05-13 10:16:00,
2013-05-13 06:21:00,49.5,37.0,29.94,NNW,338,3.0,3.0,62,0.00,,,0.00,LWC V2.10 B1702,2013-05-13 10:21:00,
2013-05-13 06:26:00,49.6,37.5,29.94,WNW,293,1.0,6.0,63,0.00,,,0.00,LWC V2.10 B1702,2013-05-13 10:26:00,
2013-05-13 06:31:00,49.7,37.6,29.94,NW,319,0.0,3.0,63,0.00,,,0.00,LWC V2.10 B1702,2013-05-13 10:31:00,
2013-05-13 06:36:00,49.8,37.7,29.94,WNW,299,2.0,5.0,63,0.00,,,0.00,LWC V2.10 B1702,2013-05-13 10:36:00,
2013-05-13 06:41:00,49.8,38.1,29.94,WNW,294,2.0,2.0,64,0.00,,,0.00,LWC V2.10 B1702,2013-05-13 10:41:00,
2013-05-13 06:46:00,49.8,38.1,29.95,West,281,3.0,4.0,64,0.00,,,0.00,LWC V2.10 B1702,2013-05-13 10:46:00,
2013-05-13 06:51:00,49.9,37.8,29.95,NW,306,3.0,4.0,63,0.00,,,0.00,LWC V2.10 B1702,2013-05-13 10:51:00,
2013-05-13 06:56:00,50.1,37.6,29.95,WSW,256,3.0,7.0,62,0.00,,,0.00,LWC V2.10 B1702,2013-05-13 10:56:00,
2013-05-13 07:01:00,50.1,38.8,29.95,NW,317,3.0,6.0,65,0.00,,,0.00,LWC V2.10 B1702,2013-05-13 11:01:00,
2013-05-13 07:06:00,50.0,37.9,29.95,WNW,288,0.0,4.0,63,0.00,,,0.00,LWC V2.10 B1702,2013-05-13 11:06:00,
2013-05-13 07:11:00,50.1,38.0,29.96,WNW,286,2.0,3.0,63,0.00,,,0.00,LWC V2.10 B1702,2013-05-13 11:11:00,
2013-05-13 07:16:00,50.3,38.6,29.96,NNW,337,2.0,6.0,64,0.00,,,0.00,LWC V2.10 B1702,2013-05-13 11:16:00,
2013-05-13 07:21:00,50.3,38.2,29.96,WNW,302,0.0,5.0,63,0.00,,,0.00,LWC V2.10 B1702,2013-05-13 11:21:00,
2013-05-13 07:26:00,50.4,38.3,29.95,West,281,1.0,4.0,63,0.00,,,0.00,LWC V2.10 B1702,2013-05-13 11:26:00,
2013-05-13 07:31:00,50.5,38.4,29.96,West,272,3.0,4.0,63,0.00,,,0.00,LWC V2.10 B1702,2013-05-13 11:31:00,
2013-05-13 07:36:00,50.6,38.5,29.96,West,260,1.0,4.0,63,0.00,,,0.00,LWC V2.10 B1702,2013-05-13 11:36:00,
2013-05-13 07:41:00,50.8,39.1,29.96,West,281,0.0,2.0,64,0.00,,,0.00,LWC V2.10 B1702,2013-05-13 11:41:00,
2013-05-13 07:46:00,51.0,38.4,29.96,WNW,298,1.0,7.0,62,0.00,,,0.00,LWC V2.10 B1702,2013-05-13 11:46:00,
2013-05-13 07:51:00,51.2,39.0,29.97,WNW,292,5.0,5.0,63,0.00,,,0.00,LWC V2.10 B1702,2013-05-13 11:51:00,
2013-05-13 07:56:00,51.4,38.8,29.96,NW,312,2.0,4.0,62,0.00,,,0.00,LWC V2.10 B1702,2013-05-13 11:56:00,
2013-05-13 08:01:00,51.5,37.7,29.96,West,277,4.0,4.0,59,0.00,,,0.00,LWC V2.10 B1702,2013-05-13 12:01:00,
2013-05-13 08:06:00,51.7,38.7,29.97,West,269,1.0,4.0,61,0.00,,,0.00,LWC V2.10 B1702,2013-05-13 12:06:00,
2013-05-13 08:11:00,52.0,39.4,29.97,WNW,290,2.0,3.0,62,0.00,,,0.00,LWC V2.10 B1702,2013-05-13 12:11:00,
2013-05-13 08:16:00,52.2,38.3,29.97,SW,221,2.0,7.0,59,0.00,,,0.00,LWC V2.10 B1702,2013-05-13 12:16:00,
2013-05-13 08:21:00,52.4,38.9,29.97,WNW,298,5.0,5.0,60,0.00,,,0.00,LWC V2.10 B1702,2013-05-13 12:21:00,
2013-05-13 08:26:00,52.7,38.3,29.97,NW,313,2.0,4.0,58,0.00,,,0.00,LWC V2.10 B1702,2013-05-13 12:26:00,
2013-05-13 08:31:00,52.8,39.3,29.97,West,263,3.0,4.0,60,0.00,,,0.00,LWC V2.10 B1702,2013-05-13 12:31:00,
2013-05-13 08:36:00,53.1,38.7,29.97,WSW,257,2.0,6.0,58,0.00,,,0.00,LWC V2.10 B1702,2013-05-13 12:36:00,
2013-05-13 08:41:00,53.4,38.6,29.97,NW,307,1.0,7.0,57,0.00,,,0.00,LWC V2.10 B1702,2013-05-13 12:41:00,
2013-05-13 08:46:00,53.6,38.7,29.97,SSW,200,3.0,4.0,57,0.00,,,0.00,LWC V2.10 B1702,2013-05-13 12:46:00,
2013-05-13 08:51:00,53.7,38.8,29.97,West,279,3.0,5.0,57,0.00,,,0.00,LWC V2.10 B1702,2013-05-13 12:51:00,
2013-05-13 08:56:00,53.9,39.0,29.97,WNW,284,4.0,8.0,57,0.00,,,0.00,LWC V2.10 B1702,2013-05-13 12:56:00,
2013-05-13 09:01:00,54.2,38.4,29.97,West,279,3.0,5.0,55,0.00,,,0.00,LWC V2.10 B1702,2013-05-13 13:01:00,
2013-05-13 09:02:00,54.2,38.8,29.97,WSW,256,1.0,5.0,56,0.00,,,0.00,LWC V2.10 B1702,2013-05-13 13:02:00,
2013-05-13 09:07:00,54.3,38.5,29.97,NW,319,0.0,4.0,55,0.00,,,0.00,LWC V2.10 B1702,2013-05-13 13:07:00,
2013-05-13 09:12:00,54.7,38.4,29.97,WSW,248,2.0,4.0,54,0.00,,,0.00,LWC V2.10 B1702,2013-05-13 13:12:00,
2013-05-13 09:17:00,55.2,40.2,29.97,WSW,257,4.0,4.0,57,0.00,,,0.00,LWC V2.10 B1702,2013-05-13 13:17:00,
2013-05-13 09:22:00,55.5,38.6,29.97,WSW,255,2.0,5.0,53,0.00,,,0.00,LWC V2.10 B1702,2013-05-13 13:22:00,
2013-05-13 09:27:00,55.8,38.4,29.98,NW,307,1.0,3.0,52,0.00,,,0.00,LWC V2.10 B1702,2013-05-13 13:27:00,
2013-05-13 09:32:00,56.2,39.8,29.97,WSW,239,3.0,5.0,54,0.00,,,0.00,LWC V2.10 B1702,2013-05-13 13:32:00,
2013-05-13 09:37:00,56.3,37.9,29.97,SW,234,1.0,6.0,50,0.00,,,0.00,LWC V2.10 B1702,2013-05-13 13:37:00,
2013-05-13 09:42:00,56.6,39.2,29.98,NNW,340,2.0,5.0,52,0.00,,,0.00,LWC V2.10 B1702,2013-05-13 13:42:00,
2013-05-13 09:47:00,57.0,40.0,29.98,SW,232,8.0,9.0,53,0.00,,,0.00,LWC V2.10 B1702,2013-05-13 13:47:00,
2013-05-13 09:52:00,57.1,39.1,29.98,West,279,5.0,7.0,51,0.00,,,0.00,LWC V2.10 B1702,2013-05-13 13:52:00,
2013-05-13 09:57:00,56.9,39.5,29.98,SW,214,1.0,6.0,52,0.00,,,0.00,LWC V2.10 B1702,2013-05-13 13:57:00,
2013-05-13 10:02:00,56.9,40.9,29.98,WNW,288,2.0,4.0,55,0.00,,,0.00,LWC V2.10 B1702,2013-05-13 14:02:00,
2013-05-13 10:05:00,57.1,39.1,29.98,West,261,3.0,10.0,51,0.00,,,0.00,LWC V2.10 B1702,2013-05-13 14:05:00,
2013-05-13 10:10:00,57.2,37.2,29.98,West,275,6.0,10.0,47,0.00,,,0.00,LWC V2.10 B1702,2013-05-13 14:10:00,
2013-05-13 10:15:00,56.7,38.3,29.98,West,279,9.0,9.0,50,0.00,,,0.00,LWC V2.10 B1702,2013-05-13 14:15:00,
2013-05-13 10:20:00,56.8,38.4,29.98,SW,227,6.0,6.0,50,0.00,,,0.00,LWC V2.10 B1702,2013-05-13 14:20:00,
2013-05-13 10:25:00,56.9,37.4,29.98,West,271,4.0,8.0,48,0.00,,,0.00,LWC V2.10 B1702,2013-05-13 14:25:00,
2013-05-13 10:30:00,57.2,39.2,29.98,WSW,248,7.0,7.0,51,0.00,,,0.00,LWC V2.10 B1702,2013-05-13 14:30:00,
2013-05-13 10:35:00,57.2,38.2,29.98,WNW,283,1.0,8.0,49,0.00,,,0.00,LWC V2.10 B1702,2013-05-13 14:35:00,
2013-05-13 10:40:00,57.1,38.6,29.97,SW,215,6.0,8.0,50,0.00,,,0.00,LWC V2.10 B1702,2013-05-13 14:40:00,
2013-05-13 10:45:00,57.2,38.2,29.98,SW,215,4.0,5.0,49,0.00,,,0.00,LWC V2.10 B1702,2013-05-13 14:45:00,
2013-05-13 10:50:00,57.1,38.6,29.98,WSW,239,6.0,13.0,50,0.00,,,0.00,LWC V2.10 B1702,2013-05-13 14:50:00,
2013-05-13 10:55:00,57.4,38.9,29.98,WSW,238,4.0,8.0,50,0.00,,,0.00,LWC V2.10 B1702,2013-05-13 14:55:00,
2013-05-13 11:00:00,57.4,37.9,29.98,WSW,258,3.0,7.0,48,0.00,,,0.00,LWC V2.10 B1702,2013-05-13 15:00:00,
2013-05-13 11:05:00,57.5,38.5,29.98,WNW,290,4.0,10.0,49,0.00,,,0.00,LWC V2.10 B1702,2013-05-13 15:05:00,
2013-05-13 11:10:00,57.6,38.6,29.98,WSW,251,5.0,10.0,49,0.00,,,0.00,LWC V2.10 B1702,2013-05-13 15:10:00,
2013-05-13 11:15:00,57.7,39.2,29.98,WSW,256,7.0,12.0,50,0.00,,,0.00,LWC V2.10 B1702,2013-05-13 15:15:00,
2013-05-13 11:20:00,57.8,38.8,29.98,WSW,245,8.0,9.0,49,0.00,,,0.00,LWC V2.10 B1702,2013-05-13 15:20:00,
2013-05-13 11:25:00,57.7,38.7,29.98,West,273,6.0,11.0,49,0.00,,,0.00,LWC V2.10 B1702,2013-05-13 15:25:00,
2013-05-13 11:30:00,58.1,41.1,29.99,WNW,298,3.0,8.0,53,0.00,,,0.00,LWC V2.10 B1702,2013-05-13 15:30:00,
2013-05-13 11:35:00,57.7,40.7,29.99,SSW,209,4.0,5.0,53,0.00,,,0.00,LWC V2.10 B1702,2013-05-13 15:35:00,
2013-05-13 11:40:00,57.7,39.7,29.99,WSW,258,4.0,11.0,51,0.00,,,0.00,LWC V2.10 B1702,2013-05-13 15:40:00,
2013-05-13 11:45:00,57.4,39.9,29.99,SW,215,8.0,9.0,52,0.00,,,0.00,LWC V2.10 B1702,2013-05-13 15:45:00,
2013-05-13 11:50:00,57.4,39.9,29.98,SW,235,3.0,8.0,52,0.00,,,0.00,LWC V2.10 B1702,2013-05-13 15:50:00,
2013-05-13 11:55:00,57.7,39.2,29.98,WSW,254,5.0,11.0,50,0.00,,,0.00,LWC V2.10 B1702,2013-05-13 15:55:00,
2013-05-13 12:00:00,57.8,41.3,29.98,NW,310,7.0,9.0,54,0.00,,,0.00,LWC V2.10 B1702,2013-05-13 16:00:00,
2013-05-13 12:05:00,57.7,38.1,29.98,SW,219,4.0,10.0,48,0.00,,,0.00,LWC V2.10 B1702,2013-05-13 16:05:00,
2013-05-13 12:10:00,57.1,38.1,29.98,SW,221,7.0,9.0,49,0.00,,,0.00,LWC V2.10 B1702,2013-05-13 16:10:00,
2013-05-13 12:15:00,57.0,39.1,29.98,WSW,257,7.0,10.0,51,0.00,,,0.00,LWC V2.10 B1702,2013-05-13 16:15:00,
2013-05-13 12:20:00,57.4,38.9,29.98,SW,223,2.0,6.0,50,0.00,,,0.00,LWC V2.10 B1702,2013-05-13 16:20:00,
2013-05-13 12:25:00,57.8,40.3,29.98,SW,215,2.0,9.0,52,0.00,,,0.00,LWC V2.10 B1702,2013-05-13 16:25:00,
2013-05-13 12:30:00,58.6,42.5,29.98,West,279,6.0,8.0,55,0.00,,,0.00,LWC V2.10 B1702,2013-05-13 16:30:00,
2013-05-13 12:35:00,58.2,41.2,29.98,West,281,4.0,7.0,53,0.00,,,0.00,LWC V2.10 B1702,2013-05-13 16:35:00,
2013-05-13 12:40:00,58.0,41.0,29.98,West,270,3.0,9.0,53,0.00,,,0.00,LWC V2.10 B1702,2013-05-13 16:40:00,
2013-05-13 12:45:00,58.2,40.2,29.98,West,263,4.0,11.0,51,0.00,,,0.00,LWC V2.10 B1702,2013-05-13 16:45:00,
2013-05-13 12:51:00,57.7,38.7,29.98,SW,229,3.0,8.0,49,0.00,,,0.00,LWC V2.10 B1702,2013-05-13 16:51:00,
2013-05-13 12:56:00,58.1,41.1,29.98,NW,316,5.0,6.0,53,0.00,,,0.00,LWC V2.10 B1702,2013-05-13 16:56:00,
2013-05-13 13:01:00,58.1,38.0,29.99,West,265,7.0,11.0,47,0.00,,,0.00,LWC V2.10 B1702,2013-05-13 17:01:00,
2013-05-13 13:06:00,57.8,38.8,29.98,WSW,255,3.0,8.0,49,0.00,,,0.00,LWC V2.10 B1702,2013-05-13 17:06:00,
2013-05-13 13:11:00,58.1,39.0,29.98,WSW,238,3.0,11.0,49,0.00,,,0.00,LWC V2.10 B1702,2013-05-13 17:11:00,
2013-05-13 13:16:00,58.6,37.9,29.98,SW,235,9.0,12.0,46,0.00,,,0.00,LWC V2.10 B1702,2013-05-13 17:16:00,
2013-05-13 13:21:00,58.3,40.2,29.98,WSW,257,8.0,8.0,51,0.00,,,0.00,LWC V2.10 B1702,2013-05-13 17:21:00,
2013-05-13 13:26:00,58.1,40.1,29.98,West,264,2.0,9.0,51,0.00,,,0.00,LWC V2.10 B1702,2013-05-13 17:26:00,
2013-05-13 13:31:00,58.3,40.2,29.98,WSW,252,3.0,8.0,51,0.00,,,0.00,LWC V2.10 B1702,2013-05-13 17:31:00,
2013-05-13 13:36:00,58.4,40.3,29.98,WSW,253,6.0,11.0,51,0.00,,,0.00,LWC V2.10 B1702,2013-05-13 17:36:00,
2013-05-13 13:41:00,58.5,39.4,29.98,WSW,248,8.0,10.0,49,0.00,,,0.00,LWC V2.10 B1702,2013-05-13 17:41:00,
2013-05-13 13:46:00,58.7,39.1,29.98,SW,230,4.0,7.0,48,0.00,,,0.00,LWC V2.10 B1702,2013-05-13 17:46:00,
2013-05-13 13:51:00,58.4,38.2,29.98,WSW,252,3.0,11.0,47,0.00,,,0.00,LWC V2.10 B1702,2013-05-13 17:51:00,
2013-05-13 13:56:00,58.2,40.7,29.97,WNW,286,14.0,14.0,52,0.00,,,0.00,LWC V2.10 B1702,2013-05-13 17:56:00,
2013-05-13 14:01:00,58.0,40.5,29.97,WSW,252,3.0,8.0,52,0.00,,,0.00,LWC V2.10 B1702,2013-05-13 18:01:00,
2013-05-13 14:06:00,58.2,39.6,29.97,West,268,6.0,8.0,50,0.00,,,0.00,LWC V2.10 B1702,2013-05-13 18:06:00,
2013-05-13 14:11:00,57.9,40.9,29.97,NW,309,9.0,9.0,53,0.00,,,0.00,LWC V2.10 B1702,2013-05-13 18:11:00,
2013-05-13 14:16:00,58.3,41.7,29.98,WNW,293,5.0,9.0,54,0.00,,,0.00,LWC V2.10 B1702,2013-05-13 18:16:00,
2013-05-13 14:21:00,58.0,40.0,29.98,West,262,4.0,8.0,51,0.00,,,0.00,LWC V2.10 B1702,2013-05-13 18:21:00,
2013-05-13 14:26:00,57.9,40.9,29.97,West,264,1.0,8.0,53,0.00,,,0.00,LWC V2.10 B1702,2013-05-13 18:26:00,
2013-05-13 14:31:00,58.0,41.0,29.97,SW,229,5.0,13.0,53,0.00,,,0.00,LWC V2.10 B1702,2013-05-13 18:31:00,
2013-05-13 14:36:00,58.4,42.3,29.97,SW,229,5.0,11.0,55,0.00,,,0.00,LWC V2.10 B1702,2013-05-13 18:36:00,
2013-05-13 14:41:00,58.6,41.0,29.98,WSW,242,5.0,9.0,52,0.00,,,0.00,LWC V2.10 B1702,2013-05-13 18:41:00,
2013-05-13 14:46:00,58.5,41.4,29.97,SW,232,5.0,14.0,53,0.00,,,0.00,LWC V2.10 B1702,2013-05-13 18:46:00,
2013-05-13 14:51:00,58.6,42.0,29.97,West,275,7.0,10.0,54,0.00,,,0.00,LWC V2.10 B1702,2013-05-13 18:51:00,
2013-05-13 14:56:00,58.2,42.1,29.97,WSW,257,6.0,9.0,55,0.00,,,0.00,LWC V2.10 B1702,2013-05-13 18:56:00,
2013-05-13 15:01:00,58.7,42.6,29.97,SW,225,7.0,10.0,55,0.00,,,0.00,LWC V2.10 B1702,2013-05-13 19:01:00,
2013-05-13 15:06:00,58.5,40.9,29.97,WSW,258,5.0,7.0,52,0.00,,,0.00,LWC V2.10 B1702,2013-05-13 19:06:00,
2013-05-13 15:11:00,58.2,41.6,29.96,WSW,237,5.0,7.0,54,0.00,,,0.00,LWC V2.10 B1702,2013-05-13 19:11:00,
2013-05-13 15:16:00,58.5,41.9,29.96,WSW,238,4.0,8.0,54,0.00,,,0.00,LWC V2.10 B1702,2013-05-13 19:16:00,
2013-05-13 15:21:00,58.6,41.5,29.96,NW,315,6.0,10.0,53,0.00,,,0.00,LWC V2.10 B1702,2013-05-13 19:21:00,
2013-05-13 15:26:00,58.4,41.3,29.96,WSW,250,6.0,6.0,53,0.00,,,0.00,LWC V2.10 B1702,2013-05-13 19:26:00,
2013-05-13 15:31:00,58.6,42.5,29.96,WNW,285,8.0,11.0,55,0.00,,,0.00,LWC V2.10 B1702,2013-05-13 19:31:00,
2013-05-13 15:36:00,58.0,41.0,29.96,WSW,250,4.0,9.0,53,0.00,,,0.00,LWC V2.10 B1702,2013-05-13 19:36:00,
2013-05-13 15:41:00,58.0,41.0,29.95,West,276,3.0,6.0,53,0.00,,,0.00,LWC V2.10 B1702,2013-05-13 19:41:00,
2013-05-13 15:46:00,58.2,40.2,29.95,SW,223,7.0,9.0,51,0.00,,,0.00,LWC V2.10 B1702,2013-05-13 19:46:00,
2013-05-13 15:51:00,58.3,41.2,29.95,WSW,256,4.0,7.0,53,0.00,,,0.00,LWC V2.10 B1702,2013-05-13 19:51:00,
2013-05-13 15:56:00,58.2,40.2,29.95,SW,230,8.0,8.0,51,0.00,,,0.00,LWC V2.10 B1702,2013-05-13 19:56:00,
2013-05-13 16:01:00,57.5,40.0,29.95,WNW,296,4.0,5.0,52,0.00,,,0.00,LWC V2.10 B1702,2013-05-13 20:01:00,
2013-05-13 16:06:00,57.1,39.6,29.94,WSW,247,5.0,9.0,52,0.00,,,0.00,LWC V2.10 B1702,2013-05-13 20:06:00,
2013-05-13 16:11:00,57.0,40.5,29.94,WSW,250,5.0,7.0,54,0.00,,,0.00,LWC V2.10 B1702,2013-05-13 20:11:00,
2013-05-13 16:16:00,56.9,40.4,29.94,NW,317,2.0,8.0,54,0.00,,,0.00,LWC V2.10 B1702,2013-05-13 20:16:00,
2013-05-13 16:21:00,56.7,41.2,29.94,SW,220,4.0,9.0,56,0.00,,,0.00,LWC V2.10 B1702,2013-05-13 20:21:00,
2013-05-13 16:26:00,56.4,39.5,29.94,West,269,4.0,7.0,53,0.00,,,0.00,LWC V2.10 B1702,2013-05-13 20:26:00,
2013-05-13 16:31:00,56.2,40.7,29.94,WSW,252,3.0,8.0,56,0.00,,,0.00,LWC V2.10 B1702,2013-05-13 20:31:00,
2013-05-13 16:36:00,56.0,39.6,29.94,WSW,244,2.0,9.0,54,0.00,,,0.00,LWC V2.10 B1702,2013-05-13 20:36:00,
2013-05-13 16:41:00,55.9,39.5,29.94,West,270,4.0,6.0,54,0.00,,,0.00,LWC V2.10 B1702,2013-05-13 20:41:00,
2013-05-13 16:46:00,56.0,40.1,29.94,SW,236,4.0,8.0,55,0.00,,,0.00,LWC V2.10 B1702,2013-05-13 20:46:00,
2013-05-13 16:51:00,55.8,39.4,29.94,South,169,2.0,7.0,54,0.00,,,0.00,LWC V2.10 B1702,2013-05-13 20:51:00,
2013-05-13 16:56:00,55.8,39.9,29.95,WNW,295,4.0,5.0,55,0.00,,,0.00,LWC V2.10 B1702,2013-05-13 20:56:00,
2013-05-13 17:01:00,55.5,39.1,29.95,WSW,245,4.0,5.0,54,0.00,,,0.00,LWC V2.10 B1702,2013-05-13 21:01:00,
2013-05-13 17:06:00,55.7,39.3,29.95,SW,231,6.0,8.0,54,0.00,,,0.00,LWC V2.10 B1702,2013-05-13 21:06:00,
2013-05-13 17:11:00,55.7,38.3,29.94,WSW,237,4.0,7.0,52,0.00,,,0.00,LWC V2.10 B1702,2013-05-13 21:11:00,
2013-05-13 17:16:00,55.3,39.9,29.94,SW,219,3.0,6.0,56,0.00,,,0.00,LWC V2.10 B1702,2013-05-13 21:16:00,
2013-05-13 17:21:00,55.3,38.5,29.94,SW,235,5.0,10.0,53,0.00,,,0.00,LWC V2.10 B1702,2013-05-13 21:21:00,
2013-05-13 17:26:00,55.3,38.9,29.94,WSW,252,4.0,7.0,54,0.00,,,0.00,LWC V2.10 B1702,2013-05-13 21:26:00,
2013-05-13 17:31:00,55.3,39.4,29.94,NW,311,2.0,3.0,55,0.00,,,0.00,LWC V2.10 B1702,2013-05-13 21:31:00,
2013-05-13 17:36:00,55.4,40.4,29.94,West,277,5.0,6.0,57,0.00,,,0.00,LWC V2.10 B1702,2013-05-13 21:36:00,
2013-05-13 17:41:00,55.8,40.8,29.93,WNW,295,2.0,8.0,57,0.00,,,0.00,LWC V2.10 B1702,2013-05-13 21:41:00,
2013-05-13 17:46:00,55.8,40.3,29.93,WNW,294,2.0,5.0,56,0.00,,,0.00,LWC V2.10 B1702,2013-05-13 21:46:00,
2013-05-13 17:51:00,55.8,40.3,29.93,West,260,6.0,8.0,56,0.00,,,0.00,LWC V2.10 B1702,2013-05-13 21:51:00,
2013-05-13 17:56:00,55.5,38.6,29.94,WSW,248,3.0,10.0,53,0.00,,,0.00,LWC V2.10 B1702,2013-05-13 21:56:00,
2013-05-13 18:01:00,55.1,39.7,29.94,South,178,4.0,10.0,56,0.00,,,0.00,LWC V2.10 B1702,2013-05-13 22:01:00,
2013-05-13 18:06:00,55.0,40.0,29.93,WSW,254,6.0,8.0,57,0.00,,,0.00,LWC V2.10 B1702,2013-05-13 22:06:00,
2013-05-13 18:11:00,54.9,39.0,29.93,SW,223,2.0,7.0,55,0.00,,,0.00,LWC V2.10 B1702,2013-05-13 22:11:00,
2013-05-13 18:16:00,54.9,39.0,29.94,WSW,242,5.0,7.0,55,0.00,,,0.00,LWC V2.10 B1702,2013-05-13 22:16:00,
2013-05-13 18:21:00,54.8,40.3,29.94,SW,225,1.0,7.0,58,0.00,,,0.00,LWC V2.10 B1702,2013-05-13 22:21:00,
2013-05-13 18:26:00,54.5,38.7,29.94,WSW,246,4.0,5.0,55,0.00,,,0.00,LWC V2.10 B1702,2013-05-13 22:26:00,
2013-05-13 18:31:00,54.1,39.7,29.95,SSW,205,2.0,9.0,58,0.00,,,0.00,LWC V2.10 B1702,2013-05-13 22:31:00,
2013-05-13 18:36:00,53.8,39.4,29.95,SSW,197,2.0,4.0,58,0.00,,,0.00,LWC V2.10 B1702,2013-05-13 22:36:00,
2013-05-13 18:41:00,53.5,39.1,29.95,West,260,6.0,9.0,58,0.00,,,0.00,LWC V2.10 B1702,2013-05-13 22:41:00,
2013-05-13 18:46:00,53.4,39.9,29.95,SW,223,1.0,6.0,60,0.00,,,0.00,LWC V2.10 B1702,2013-05-13 22:46:00,
2013-05-13 18:51:00,53.3,40.2,29.95,West,265,3.0,4.0,61,0.00,,,0.00,LWC V2.10 B1702,2013-05-13 22:51:00,
2013-05-13 18:56:00,53.2,40.5,29.95,WSW,246,3.0,5.0,62,0.00,,,0.00,LWC V2.10 B1702,2013-05-13 22:56:00,
2013-05-13 19:01:00,53.2,40.1,29.95,WSW,237,3.0,3.0,61,0.00,,,0.00,LWC V2.10 B1702,2013-05-13 23:01:00,
2013-05-13 19:06:00,53.0,39.9,29.95,WSW,242,1.0,6.0,61,0.00,,,0.00,LWC V2.10 B1702,2013-05-13 23:06:00,
2013-05-13 19:11:00,52.9,40.7,29.96,SW,222,7.0,7.0,63,0.00,,,0.00,LWC V2.10 B1702,2013-05-13 23:11:00,
2013-05-13 19:16:00,52.9,40.2,29.96,WSW,246,3.0,5.0,62,0.00,,,0.00,LWC V2.10 B1702,2013-05-13 23:16:00,
2013-05-13 19:21:00,52.8,41.0,29.96,West,276,3.0,5.0,64,0.00,,,0.00,LWC V2.10 B1702,2013-05-13 23:21:00,
2013-05-13 19:26:00,52.8,40.6,29.96,WSW,258,2.0,5.0,63,0.00,,,0.00,LWC V2.10 B1702,2013-05-13 23:26:00,
2013-05-13 19:31:00,52.7,40.9,29.95,West,267,3.0,5.0,64,0.00,,,0.00,LWC V2.10 B1702,2013-05-13 23:31:00,
2013-05-13 19:36:00,52.6,40.0,29.95,SW,224,3.0,5.0,62,0.00,,,0.00,LWC V2.10 B1702,2013-05-13 23:36:00,
2013-05-13 19:41:00,52.5,40.3,29.95,WSW,243,3.0,4.0,63,0.00,,,0.00,LWC V2.10 B1702,2013-05-13 23:41:00,
2013-05-13 19:46:00,52.5,40.7,29.95,West,263,5.0,7.0,64,0.00,,,0.00,LWC V2.10 B1702,2013-05-13 23:46:00,
2013-05-13 19:51:00,52.7,40.9,29.95,SW,232,0.0,5.0,64,0.00,,,0.00,LWC V2.10 B1702,2013-05-13 23:51:00,
2013-05-13 19:56:00,52.8,41.0,29.95,SW,219,4.0,6.0,64,0.00,,,0.00,LWC V2.10 B1702,2013-05-13 23:56:00,
2013-05-13 20:01:00,52.8,40.1,29.95,West,277,1.0,5.0,62,0.00,,,0.00,LWC V2.10 B1702,2013-05-14 00:01:00,
2013-05-13 20:06:00,52.7,40.5,29.95,West,273,3.0,3.0,63,0.00,,,0.00,LWC V2.10 B1702,2013-05-14 00:06:00,
2013-05-13 20:11:00,52.7,40.5,29.95,West,267,1.0,6.0,63,0.00,,,0.00,LWC V2.10 B1702,2013-05-14 00:11:00,
2013-05-13 20:16:00,52.7,40.5,29.95,WSW,250,3.0,4.0,63,0.00,,,0.00,LWC V2.10 B1702,2013-05-14 00:16:00,
2013-05-13 20:21:00,52.8,40.1,29.96,West,265,4.0,8.0,62,0.00,,,0.00,LWC V2.10 B1702,2013-05-14 00:21:00,
2013-05-13 20:26:00,52.8,39.7,29.96,WNW,298,1.0,5.0,61,0.00,,,0.00,LWC V2.10 B1702,2013-05-14 00:26:00,
2013-05-13 20:31:00,52.9,40.2,29.96,West,264,2.0,7.0,62,0.00,,,0.00,LWC V2.10 B1702,2013-05-14 00:31:00,
2013-05-13 20:36:00,53.0,40.7,29.96,West,263,0.0,3.0,63,0.00,,,0.00,LWC V2.10 B1702,2013-05-14 00:36:00,
2013-05-13 20:41:00,53.0,41.2,29.96,West,275,2.0,6.0,64,0.00,,,0.00,LWC V2.10 B1702,2013-05-14 00:41:00,
2013-05-13 20:46:00,53.0,41.6,29.96,WSW,242,3.0,5.0,65,0.00,,,0.00,LWC V2.10 B1702,2013-05-14 00:46:00,
2013-05-13 20:51:00,53.1,42.0,29.96,West,277,0.0,1.0,66,0.00,,,0.00,LWC V2.10 B1702,2013-05-14 00:51:00,
2013-05-13 20:56:00,53.1,41.6,29.96,WNW,286,1.0,4.0,65,0.00,,,0.00,LWC V2.10 B1702,2013-05-14 00:56:00,
2013-05-13 21:01:00,53.1,41.2,29.97,NNW,348,5.0,7.0,64,0.00,,,0.00,LWC V2.10 B1702,2013-05-14 01:01:00,
2013-05-13 21:06:00,53.1,39.2,29.97,North,5,1.0,7.0,59,0.00,,,0.00,LWC V2.10 B1702,2013-05-14 01:06:00,
2013-05-13 21:11:00,53.1,37.4,29.97,North,355,2.0,6.0,55,0.00,,,0.00,LWC V2.10 B1702,2013-05-14 01:11:00,
2013-05-13 21:16:00,53.1,36.4,29.97,NNW,329,8.0,9.0,53,0.00,,,0.00,LWC V2.10 B1702,2013-05-14 01:16:00,
2013-05-13 21:21:00,53.1,35.9,29.97,NW,311,1.0,5.0,52,0.00,,,0.00,LWC V2.10 B1702,2013-05-14 01:21:00,
2013-05-13 21:26:00,53.2,36.0,29.98,NNW,342,4.0,4.0,52,0.00,,,0.00,LWC V2.10 B1702,2013-05-14 01:26:00,
2013-05-13 21:31:00,53.2,35.5,29.98,NW,309,4.0,6.0,51,0.00,,,0.00,LWC V2.10 B1702,2013-05-14 01:31:00,
2013-05-13 21:36:00,53.1,34.4,29.98,NNW,338,2.0,7.0,49,0.00,,,0.00,LWC V2.10 B1702,2013-05-14 01:36:00,
2013-05-13 21:41:00,53.1,33.9,29.98,West,273,4.0,8.0,48,0.00,,,0.00,LWC V2.10 B1702,2013-05-14 01:41:00,
2013-05-13 21:46:00,53.0,34.9,29.98,NNE,24,4.0,5.0,50,0.00,,,0.00,LWC V2.10 B1702,2013-05-14 01:46:00,
2013-05-13 21:51:00,52.9,34.3,29.98,NE,37,4.0,10.0,49,0.00,,,0.00,LWC V2.10 B1702,2013-05-14 01:51:00,
2013-05-13 21:56:00,52.8,34.7,29.99,NNW,327,7.0,9.0,50,0.00,,,0.00,LWC V2.10 B1702,2013-05-14 01:56:00,
2013-05-13 22:01:00,52.7,33.0,29.99,NE,36,4.0,8.0,47,0.00,,,0.00,LWC V2.10 B1702,2013-05-14 02:01:00,
2013-05-13 22:06:00,52.6,33.0,29.99,North,355,5.0,6.0,47,0.00,,,0.00,LWC V2.10 B1702,2013-05-14 02:06:00,
2013-05-13 22:11:00,52.4,32.8,29.99,NNE,24,1.0,9.0,47,0.00,,,0.00,LWC V2.10 B1702,2013-05-14 02:11:00,
2013-05-13 22:16:00,52.3,32.7,30.00,NNW,339,3.0,5.0,47,0.00,,,0.00,LWC V2.10 B1702,2013-05-14 02:16:00,
2013-05-13 22:21:00,52.1,32.0,30.00,North,5,2.0,7.0,46,0.00,,,0.00,LWC V2.10 B1702,2013-05-14 02:21:00,
2013-05-13 22:26:00,52.0,32.9,30.00,NNW,338,2.0,8.0,48,0.00,,,0.00,LWC V2.10 B1702,2013-05-14 02:26:00,
2013-05-13 22:31:00,51.9,32.8,30.00,NE,50,4.0,9.0,48,0.00,,,0.00,LWC V2.10 B1702,2013-05-14 02:31:00,
2013-05-13 22:36:00,51.8,32.2,30.00,NNE,24,4.0,4.0,47,0.00,,,0.00,LWC V2.10 B1702,2013-05-14 02:36:00,
2013-05-13 22:41:00,51.7,32.6,30.00,North,355,4.0,4.0,48,0.00,,,0.00,LWC V2.10 B1702,2013-05-14 02:41:00,
2013-05-13 22:46:00,51.5,31.9,30.00,NW,306,8.0,8.0,47,0.00,,,0.00,LWC V2.10 B1702,2013-05-14 02:46:00,
2013-05-13 22:51:00,51.4,31.3,30.00,NE,44,1.0,7.0,46,0.00,,,0.00,LWC V2.10 B1702,2013-05-14 02:51:00,
2013-05-13 22:56:00,51.3,31.8,29.99,NNE,19,4.0,5.0,47,0.00,,,0.00,LWC V2.10 B1702,2013-05-14 02:56:00,
2013-05-13 23:01:00,51.2,32.7,30.00,WNW,288,0.0,4.0,49,0.00,,,0.00,LWC V2.10 B1702,2013-05-14 03:01:00,
2013-05-13 23:06:00,51.1,31.6,29.99,NNE,13,1.0,6.0,47,0.00,,,0.00,LWC V2.10 B1702,2013-05-14 03:06:00,
2013-05-13 23:11:00,51.1,32.6,29.99,NNE,28,1.0,6.0,49,0.00,,,0.00,LWC V2.10 B1702,2013-05-14 03:11:00,
2013-05-13 23:16:00,51.0,32.0,29.99,NNW,334,5.0,6.0,48,0.00,,,0.00,LWC V2.10 B1702,2013-05-14 03:16:00,
2013-05-13 23:21:00,50.9,31.4,29.99,NNW,343,5.0,5.0,47,0.00,,,0.00,LWC V2.10 B1702,2013-05-14 03:21:00,
2013-05-13 23:26:00,50.8,32.8,29.99,NNE,32,2.0,5.0,50,0.00,,,0.00,LWC V2.10 B1702,2013-05-14 03:26:00,
2013-05-13 23:31:00,50.7,32.7,29.99,NNW,342,2.0,11.0,50,0.00,,,0.00,LWC V2.10 B1702,2013-05-14 03:31:00,
2013-05-13 23:36:00,50.6,32.7,29.99,WSW,237,0.0,3.0,50,0.00,,,0.00,LWC V2.10 B1702,2013-05-14 03:36:00,
2013-05-13 23:41:00,50.6,32.7,29.99,ESE,102,0.0,2.0,50,0.00,,,0.00,LWC V2.10 B1702,2013-05-14 03:41:00,
2013-05-13 23:46:00,50.5,32.1,29.99,WNW,288,3.0,4.0,49,0.00,,,0.00,LWC V2.10 B1702,2013-05-14 03:46:00,
2013-05-13 23:51:00,50.5,33.1,29.99,NW,323,4.0,5.0,51,0.00,,,0.00,LWC V2.10 B1702,2013-05-14 03:51:00,
2013-05-13 23:56:00,50.4,33.0,29.99,NE,48,0.0,4.0,51,0.00,,,0.00,LWC V2.10 B1702,2013-05-14 03:56:00,